sensor_id;sensor_type;location;lat;lon;timestamp;pressure;altitude;pressure_sealevel;temperature;humidity
28306;BME280;7516;43.570;1.448;2023-03-11T00:00:32;99286.31;;;15.11;100.00
28306;BME280;7516;43.570;1.448;2023-03-11T00:03:01;99279.78;;;15.20;100.00
28306;BME280;7516;43.570;1.448;2023-03-11T00:05:31;99263.06;;;15.26;100.00
28306;BME280;7516;43.570;1.448;2023-03-11T00:07:59;99268.91;;;15.34;99.28
28306;BME280;7516;43.570;1.448;2023-03-11T00:10:29;99250.81;;;15.38;98.77
28306;BME280;7516;43.570;1.448;2023-03-11T00:13:02;99266.66;;;15.38;98.19
28306;BME280;7516;43.570;1.448;2023-03-11T00:15:30;99243.84;;;15.43;97.47
28306;BME280;7516;43.570;1.448;2023-03-11T00:17:58;99249.50;;;15.54;96.49
28306;BME280;7516;43.570;1.448;2023-03-11T00:20:27;99244.16;;;15.60;95.70
28306;BME280;7516;43.570;1.448;2023-03-11T00:22:56;99264.88;;;15.63;95.54
28306;BME280;7516;43.570;1.448;2023-03-11T00:25:28;99254.50;;;15.62;95.15
28306;BME280;7516;43.570;1.448;2023-03-11T00:27:56;99255.06;;;15.70;94.47
28306;BME280;7516;43.570;1.448;2023-03-11T00:30:25;99223.34;;;15.70;93.73
28306;BME280;7516;43.570;1.448;2023-03-11T00:32:55;99246.91;;;15.72;93.86
28306;BME280;7516;43.570;1.448;2023-03-11T00:35:25;99242.44;;;15.72;93.17
28306;BME280;7516;43.570;1.448;2023-03-11T00:37:54;99242.38;;;15.79;92.10
28306;BME280;7516;43.570;1.448;2023-03-11T00:40:24;99240.53;;;15.79;92.18
28306;BME280;7516;43.570;1.448;2023-03-11T00:42:52;99230.94;;;15.85;91.28
28306;BME280;7516;43.570;1.448;2023-03-11T00:45:20;99246.22;;;15.83;91.08
28306;BME280;7516;43.570;1.448;2023-03-11T00:47:49;99248.03;;;15.83;90.72
28306;BME280;7516;43.570;1.448;2023-03-11T00:50:19;99231.38;;;15.82;91.23
28306;BME280;7516;43.570;1.448;2023-03-11T00:52:48;99230.56;;;15.82;90.86
28306;BME280;7516;43.570;1.448;2023-03-11T00:55:18;99234.38;;;15.86;90.94
28306;BME280;7516;43.570;1.448;2023-03-11T00:57:46;99230.13;;;15.85;90.46
28306;BME280;7516;43.570;1.448;2023-03-11T01:00:15;99228.28;;;15.85;90.62
28306;BME280;7516;43.570;1.448;2023-03-11T01:02:43;99228.66;;;15.89;90.47
28306;BME280;7516;43.570;1.448;2023-03-11T01:05:12;99223.97;;;15.91;89.54
28306;BME280;7516;43.570;1.448;2023-03-11T01:07:40;99218.97;;;16.01;89.77
28306;BME280;7516;43.570;1.448;2023-03-11T01:10:10;99226.69;;;16.02;88.68
28306;BME280;7516;43.570;1.448;2023-03-11T01:12:38;99219.94;;;16.06;88.72
28306;BME280;7516;43.570;1.448;2023-03-11T01:15:06;99217.44;;;16.11;87.62
28306;BME280;7516;43.570;1.448;2023-03-11T01:17:34;99225.75;;;16.15;87.55
28306;BME280;7516;43.570;1.448;2023-03-11T01:20:01;99225.25;;;16.25;87.46
28306;BME280;7516;43.570;1.448;2023-03-11T01:22:33;99227.38;;;16.34;86.38
28306;BME280;7516;43.570;1.448;2023-03-11T01:25:01;99234.41;;;16.40;85.74
28306;BME280;7516;43.570;1.448;2023-03-11T01:27:28;99229.25;;;16.45;85.54
28306;BME280;7516;43.570;1.448;2023-03-11T01:29:56;99227.41;;;16.46;85.24
28306;BME280;7516;43.570;1.448;2023-03-11T01:32:23;99244.69;;;16.48;85.54
28306;BME280;7516;43.570;1.448;2023-03-11T01:34:51;99224.78;;;16.46;85.18
28306;BME280;7516;43.570;1.448;2023-03-11T01:37:18;99218.69;;;16.45;84.95
28306;BME280;7516;43.570;1.448;2023-03-11T01:39:47;99213.44;;;16.57;84.29
28306;BME280;7516;43.570;1.448;2023-03-11T01:42:15;99208.59;;;16.54;84.04
28306;BME280;7516;43.570;1.448;2023-03-11T01:44:42;99205.00;;;16.48;85.26
28306;BME280;7516;43.570;1.448;2023-03-11T01:47:36;99200.91;;;16.52;84.22
28306;BME280;7516;43.570;1.448;2023-03-11T01:50:07;99177.09;;;16.52;84.19
28306;BME280;7516;43.570;1.448;2023-03-11T01:52:36;99178.44;;;16.62;83.04
28306;BME280;7516;43.570;1.448;2023-03-11T01:55:06;99212.50;;;16.70;82.01
28306;BME280;7516;43.570;1.448;2023-03-11T01:57:34;99180.66;;;16.76;83.27
28306;BME280;7516;43.570;1.448;2023-03-11T02:00:05;99188.72;;;16.81;82.46
28306;BME280;7516;43.570;1.448;2023-03-11T02:02:35;99183.44;;;16.81;82.63
28306;BME280;7516;43.570;1.448;2023-03-11T02:05:06;99182.06;;;16.79;81.78
28306;BME280;7516;43.570;1.448;2023-03-11T02:07:34;99153.19;;;16.89;81.89
28306;BME280;7516;43.570;1.448;2023-03-11T02:10:06;99160.19;;;16.83;82.11
28306;BME280;7516;43.570;1.448;2023-03-11T02:12:35;99160.47;;;16.64;84.81
28306;BME280;7516;43.570;1.448;2023-03-11T02:15:04;99156.78;;;16.65;84.56
28306;BME280;7516;43.570;1.448;2023-03-11T02:17:34;99160.47;;;16.64;84.46
28306;BME280;7516;43.570;1.448;2023-03-11T02:20:17;99154.41;;;16.75;83.06
28306;BME280;7516;43.570;1.448;2023-03-11T02:22:47;99145.44;;;16.76;83.56
28306;BME280;7516;43.570;1.448;2023-03-11T02:25:23;99142.25;;;16.85;82.22
28306;BME280;7516;43.570;1.448;2023-03-11T02:27:55;99139.72;;;16.90;82.46
28306;BME280;7516;43.570;1.448;2023-03-11T02:30:25;99147.59;;;16.97;81.13
28306;BME280;7516;43.570;1.448;2023-03-11T02:32:54;99147.00;;;16.95;82.35
28306;BME280;7516;43.570;1.448;2023-03-11T02:35:22;99136.31;;;17.02;82.08
28306;BME280;7516;43.570;1.448;2023-03-11T02:37:52;99160.94;;;17.02;81.78
28306;BME280;7516;43.570;1.448;2023-03-11T02:40:35;99134.13;;;17.10;81.54
28306;BME280;7516;43.570;1.448;2023-03-11T02:43:08;99135.38;;;17.08;81.40
28306;BME280;7516;43.570;1.448;2023-03-11T02:45:37;99148.97;;;17.11;81.72
28306;BME280;7516;43.570;1.448;2023-03-11T02:48:08;99162.31;;;17.16;80.85
28306;BME280;7516;43.570;1.448;2023-03-11T02:50:37;99156.69;;;17.24;80.90
28306;BME280;7516;43.570;1.448;2023-03-11T02:53:05;99151.66;;;17.23;79.92
28306;BME280;7516;43.570;1.448;2023-03-11T02:55:33;99145.41;;;17.17;81.52
28306;BME280;7516;43.570;1.448;2023-03-11T02:58:01;99160.50;;;17.17;81.69
28306;BME280;7516;43.570;1.448;2023-03-11T03:00:30;99161.78;;;17.14;80.89
28306;BME280;7516;43.570;1.448;2023-03-11T03:02:57;99148.28;;;17.16;81.68
28306;BME280;7516;43.570;1.448;2023-03-11T03:05:25;99154.38;;;17.16;82.04
28306;BME280;7516;43.570;1.448;2023-03-11T03:07:52;99154.88;;;17.13;81.28
28306;BME280;7516;43.570;1.448;2023-03-11T03:10:21;99159.34;;;17.13;81.54
28306;BME280;7516;43.570;1.448;2023-03-11T03:12:49;99166.44;;;17.01;83.26
28306;BME280;7516;43.570;1.448;2023-03-11T03:15:16;99145.00;;;16.90;84.13
28306;BME280;7516;43.570;1.448;2023-03-11T03:17:45;99161.97;;;17.01;82.96
28306;BME280;7516;43.570;1.448;2023-03-11T03:20:14;99166.22;;;17.02;83.77
28306;BME280;7516;43.570;1.448;2023-03-11T03:22:42;99169.69;;;17.03;85.08
28306;BME280;7516;43.570;1.448;2023-03-11T03:25:10;99190.75;;;17.09;84.63
28306;BME280;7516;43.570;1.448;2023-03-11T03:27:37;99168.53;;;17.10;84.32
28306;BME280;7516;43.570;1.448;2023-03-11T03:30:07;99191.69;;;17.03;84.36
28306;BME280;7516;43.570;1.448;2023-03-11T03:32:35;99157.94;;;17.10;84.15
28306;BME280;7516;43.570;1.448;2023-03-11T03:35:04;99173.72;;;17.05;84.21
28306;BME280;7516;43.570;1.448;2023-03-11T03:37:33;99157.03;;;17.05;84.01
28306;BME280;7516;43.570;1.448;2023-03-11T03:40:01;99168.06;;;17.02;84.32
28306;BME280;7516;43.570;1.448;2023-03-11T03:42:33;99169.56;;;17.09;84.30
28306;BME280;7516;43.570;1.448;2023-03-11T03:45:00;99168.78;;;17.09;85.25
28306;BME280;7516;43.570;1.448;2023-03-11T03:47:28;99156.22;;;17.04;84.85
28306;BME280;7516;43.570;1.448;2023-03-11T03:49:56;99168.66;;;17.04;85.32
28306;BME280;7516;43.570;1.448;2023-03-11T03:52:25;99158.28;;;17.02;86.37
28306;BME280;7516;43.570;1.448;2023-03-11T03:54:52;99169.91;;;17.01;86.06
28306;BME280;7516;43.570;1.448;2023-03-11T03:57:20;99185.34;;;17.04;86.11
28306;BME280;7516;43.570;1.448;2023-03-11T03:59:47;99160.34;;;17.00;86.89
28306;BME280;7516;43.570;1.448;2023-03-11T04:02:14;99176.81;;;17.02;87.19
28306;BME280;7516;43.570;1.448;2023-03-11T04:04:42;99166.69;;;16.99;86.92
28306;BME280;7516;43.570;1.448;2023-03-11T04:07:09;99179.09;;;16.99;87.43
28306;BME280;7516;43.570;1.448;2023-03-11T04:09:40;99166.78;;;16.92;88.44
28306;BME280;7516;43.570;1.448;2023-03-11T04:12:12;99163.00;;;16.88;87.77
28306;BME280;7516;43.570;1.448;2023-03-11T04:14:39;99181.75;;;16.87;88.36
28306;BME280;7516;43.570;1.448;2023-03-11T04:17:09;99173.22;;;16.85;88.07
28306;BME280;7516;43.570;1.448;2023-03-11T04:19:37;99176.06;;;16.83;88.96
28306;BME280;7516;43.570;1.448;2023-03-11T04:22:05;99181.38;;;16.83;88.54
28306;BME280;7516;43.570;1.448;2023-03-11T04:24:32;99180.56;;;16.83;88.58
28306;BME280;7516;43.570;1.448;2023-03-11T04:27:01;99172.03;;;16.81;89.68
28306;BME280;7516;43.570;1.448;2023-03-11T04:29:29;99190.00;;;16.79;90.17
28306;BME280;7516;43.570;1.448;2023-03-11T04:31:56;99188.00;;;16.74;89.66
28306;BME280;7516;43.570;1.448;2023-03-11T04:34:24;99183.53;;;16.75;90.50
28306;BME280;7516;43.570;1.448;2023-03-11T04:36:52;99179.25;;;16.74;90.56
28306;BME280;7516;43.570;1.448;2023-03-11T04:39:19;99175.00;;;16.73;90.35
28306;BME280;7516;43.570;1.448;2023-03-11T04:41:47;99189.72;;;16.69;91.06
28306;BME280;7516;43.570;1.448;2023-03-11T04:44:16;99185.91;;;16.65;91.20
28306;BME280;7516;43.570;1.448;2023-03-11T04:46:43;99182.66;;;16.63;91.29
28306;BME280;7516;43.570;1.448;2023-03-11T04:49:11;99179.66;;;16.59;91.40
28306;BME280;7516;43.570;1.448;2023-03-11T04:51:40;99178.03;;;16.58;90.92
28306;BME280;7516;43.570;1.448;2023-03-11T04:54:08;99177.22;;;16.58;91.12
28306;BME280;7516;43.570;1.448;2023-03-11T04:56:35;99198.38;;;16.58;92.54
28306;BME280;7516;43.570;1.448;2023-03-11T04:59:03;99182.94;;;16.54;92.40
28306;BME280;7516;43.570;1.448;2023-03-11T05:01:32;99188.13;;;16.49;92.76
28306;BME280;7516;43.570;1.448;2023-03-11T05:03:59;99179.59;;;16.47;92.47
28306;BME280;7516;43.570;1.448;2023-03-11T05:06:27;99182.81;;;16.49;92.15
28306;BME280;7516;43.570;1.448;2023-03-11T05:08:54;99172.13;;;16.44;92.93
28306;BME280;7516;43.570;1.448;2023-03-11T05:11:22;99171.38;;;16.37;92.83
28306;BME280;7516;43.570;1.448;2023-03-11T05:13:49;99170.22;;;16.33;92.85
28306;BME280;7516;43.570;1.448;2023-03-11T05:16:16;99186.72;;;16.29;93.37
28306;BME280;7516;43.570;1.448;2023-03-11T05:18:45;99209.59;;;16.23;93.84
28306;BME280;7516;43.570;1.448;2023-03-11T05:21:13;99212.16;;;16.30;93.09
28306;BME280;7516;43.570;1.448;2023-03-11T05:23:40;99207.47;;;16.32;93.17
28306;BME280;7516;43.570;1.448;2023-03-11T05:26:08;99205.19;;;16.35;92.74
28306;BME280;7516;43.570;1.448;2023-03-11T05:28:37;99226.34;;;16.35;92.33
28306;BME280;7516;43.570;1.448;2023-03-11T05:31:07;99209.06;;;16.33;92.22
28306;BME280;7516;43.570;1.448;2023-03-11T05:33:35;99221.50;;;16.32;92.32
28306;BME280;7516;43.570;1.448;2023-03-11T05:36:06;99219.88;;;16.31;92.39
28306;BME280;7516;43.570;1.448;2023-03-11T05:38:34;99244.69;;;16.30;92.34
28306;BME280;7516;43.570;1.448;2023-03-11T05:41:02;99213.19;;;16.29;92.16
28306;BME280;7516;43.570;1.448;2023-03-11T05:43:29;99210.75;;;16.27;92.01
28306;BME280;7516;43.570;1.448;2023-03-11T05:45:57;99242.94;;;16.24;92.21
28306;BME280;7516;43.570;1.448;2023-03-11T05:48:24;99219.56;;;16.21;92.45
28306;BME280;7516;43.570;1.448;2023-03-11T05:50:52;99232.44;;;16.17;93.01
28306;BME280;7516;43.570;1.448;2023-03-11T05:53:20;99226.56;;;16.15;93.47
28306;BME280;7516;43.570;1.448;2023-03-11T05:55:55;99225.31;;;16.18;92.68
28306;BME280;7516;43.570;1.448;2023-03-11T05:58:23;99228.41;;;16.15;92.97
28306;BME280;7516;43.570;1.448;2023-03-11T06:00:50;99221.06;;;16.17;93.05
28306;BME280;7516;43.570;1.448;2023-03-11T06:03:18;99235.91;;;16.18;92.96
28306;BME280;7516;43.570;1.448;2023-03-11T06:05:46;99241.63;;;16.15;93.88
28306;BME280;7516;43.570;1.448;2023-03-11T06:08:14;99224.13;;;16.14;93.99
28306;BME280;7516;43.570;1.448;2023-03-11T06:10:43;99234.72;;;16.14;93.75
28306;BME280;7516;43.570;1.448;2023-03-11T06:13:10;99230.44;;;16.13;93.53
28306;BME280;7516;43.570;1.448;2023-03-11T06:15:38;99231.69;;;16.10;93.66
28306;BME280;7516;43.570;1.448;2023-03-11T06:18:05;99246.53;;;16.11;93.94
28306;BME280;7516;43.570;1.448;2023-03-11T06:20:33;99241.22;;;16.11;94.36
28306;BME280;7516;43.570;1.448;2023-03-11T06:23:02;99236.41;;;16.08;94.65
28306;BME280;7516;43.570;1.448;2023-03-11T06:25:30;99228.69;;;16.07;94.91
28306;BME280;7516;43.570;1.448;2023-03-11T06:27:59;99229.50;;;16.07;94.83
28306;BME280;7516;43.570;1.448;2023-03-11T06:30:26;99230.31;;;16.08;94.27
28306;BME280;7516;43.570;1.448;2023-03-11T06:32:54;99237.66;;;16.06;95.21
28306;BME280;7516;43.570;1.448;2023-03-11T06:35:21;99232.34;;;16.06;94.52
28306;BME280;7516;43.570;1.448;2023-03-11T06:37:49;99227.06;;;16.06;94.99
28306;BME280;7516;43.570;1.448;2023-03-11T06:40:17;99253.50;;;16.06;94.80
28306;BME280;7516;43.570;1.448;2023-03-11T06:42:45;99254.31;;;16.06;94.83
28306;BME280;7516;43.570;1.448;2023-03-11T06:45:15;99260.84;;;16.04;94.67
28306;BME280;7516;43.570;1.448;2023-03-11T06:47:42;99290.13;;;16.02;94.35
28306;BME280;7516;43.570;1.448;2023-03-11T06:50:10;99240.50;;;16.04;94.75
28306;BME280;7516;43.570;1.448;2023-03-11T06:52:38;99244.16;;;16.03;93.86
28306;BME280;7516;43.570;1.448;2023-03-11T06:55:06;99237.25;;;16.02;94.27
28306;BME280;7516;43.570;1.448;2023-03-11T06:57:34;99275.28;;;16.01;94.18
28306;BME280;7516;43.570;1.448;2023-03-11T07:00:01;99257.38;;;16.03;93.61
28306;BME280;7516;43.570;1.448;2023-03-11T07:02:32;99268.16;;;16.02;93.96
28306;BME280;7516;43.570;1.448;2023-03-11T07:05:00;99267.34;;;16.01;93.66
28306;BME280;7516;43.570;1.448;2023-03-11T07:07:27;99276.34;;;16.00;93.59
28306;BME280;7516;43.570;1.448;2023-03-11T07:09:55;99275.28;;;16.01;93.77
28306;BME280;7516;43.570;1.448;2023-03-11T07:12:23;99327.34;;;16.01;93.45
28306;BME280;7516;43.570;1.448;2023-03-11T07:14:54;99294.59;;;16.02;93.56
28306;BME280;7516;43.570;1.448;2023-03-11T07:17:22;99297.03;;;16.03;93.17
28306;BME280;7516;43.570;1.448;2023-03-11T07:19:51;99290.94;;;16.03;93.83
28306;BME280;7516;43.570;1.448;2023-03-11T07:22:19;99294.59;;;16.02;93.69
28306;BME280;7516;43.570;1.448;2023-03-11T07:24:47;99294.84;;;16.00;92.90
28306;BME280;7516;43.570;1.448;2023-03-11T07:27:15;99288.88;;;16.05;93.08
28306;BME280;7516;43.570;1.448;2023-03-11T07:29:43;99285.59;;;16.09;92.15
28306;BME280;7516;43.570;1.448;2023-03-11T07:32:11;99287.59;;;16.14;91.84
28306;BME280;7516;43.570;1.448;2023-03-11T07:34:38;99300.81;;;16.14;91.08
28306;BME280;7516;43.570;1.448;2023-03-11T07:37:07;99335.38;;;16.12;91.26
28306;BME280;7516;43.570;1.448;2023-03-11T07:39:34;99319.31;;;16.14;90.69
28306;BME280;7516;43.570;1.448;2023-03-11T07:42:03;99311.16;;;16.15;91.44
28306;BME280;7516;43.570;1.448;2023-03-11T07:44:31;99308.72;;;16.14;91.59
28306;BME280;7516;43.570;1.448;2023-03-11T07:47:02;99312.41;;;16.13;91.95
28306;BME280;7516;43.570;1.448;2023-03-11T07:49:29;99308.34;;;16.10;91.71
28306;BME280;7516;43.570;1.448;2023-03-11T07:51:57;99317.09;;;16.11;92.12
28306;BME280;7516;43.570;1.448;2023-03-11T07:54:26;99313.63;;;16.10;92.24
28306;BME280;7516;43.570;1.448;2023-03-11T07:56:54;99316.06;;;16.12;92.25
28306;BME280;7516;43.570;1.448;2023-03-11T07:59:21;99352.47;;;16.10;92.17
28306;BME280;7516;43.570;1.448;2023-03-11T08:01:48;99321.81;;;16.09;92.44
28306;BME280;7516;43.570;1.448;2023-03-11T08:04:16;99342.16;;;16.08;92.44
28306;BME280;7516;43.570;1.448;2023-03-11T08:06:45;99333.63;;;16.06;91.97
28306;BME280;7516;43.570;1.448;2023-03-11T08:09:13;99343.38;;;16.06;91.73
28306;BME280;7516;43.570;1.448;2023-03-11T08:11:42;99361.69;;;16.07;92.16
28306;BME280;7516;43.570;1.448;2023-03-11T08:14:10;99352.34;;;16.05;92.36
28306;BME280;7516;43.570;1.448;2023-03-11T08:16:39;99361.16;;;15.92;94.24
28306;BME280;7516;43.570;1.448;2023-03-11T08:19:09;99368.41;;;15.78;95.73
28306;BME280;7516;43.570;1.448;2023-03-11T08:21:37;99371.91;;;15.72;96.17
28306;BME280;7516;43.570;1.448;2023-03-11T08:24:05;99382.75;;;15.51;98.67
28306;BME280;7516;43.570;1.448;2023-03-11T08:26:33;99372.75;;;15.28;100.00
28306;BME280;7516;43.570;1.448;2023-03-11T08:29:02;99413.38;;;15.21;100.00
28306;BME280;7516;43.570;1.448;2023-03-11T08:31:31;99385.13;;;15.28;100.00
28306;BME280;7516;43.570;1.448;2023-03-11T08:34:01;99388.34;;;15.36;100.00
28306;BME280;7516;43.570;1.448;2023-03-11T08:36:30;99398.84;;;15.43;99.44
28306;BME280;7516;43.570;1.448;2023-03-11T08:38:58;99379.19;;;15.32;100.00
28306;BME280;7516;43.570;1.448;2023-03-11T08:41:26;99371.13;;;15.27;100.00
28306;BME280;7516;43.570;1.448;2023-03-11T08:43:54;99372.28;;;15.31;100.00
28306;BME280;7516;43.570;1.448;2023-03-11T08:46:25;99357.47;;;15.37;100.00
28306;BME280;7516;43.570;1.448;2023-03-11T08:48:54;99373.22;;;15.50;99.67
28306;BME280;7516;43.570;1.448;2023-03-11T08:51:22;99352.47;;;15.60;99.65
28306;BME280;7516;43.570;1.448;2023-03-11T08:53:50;99357.13;;;15.58;97.99
28306;BME280;7516;43.570;1.448;2023-03-11T08:56:18;99371.75;;;15.61;98.59
28306;BME280;7516;43.570;1.448;2023-03-11T08:58:46;99361.63;;;15.58;98.64
28306;BME280;7516;43.570;1.448;2023-03-11T09:01:14;99372.56;;;15.61;98.40
28306;BME280;7516;43.570;1.448;2023-03-11T09:03:43;99361.00;;;15.62;97.96
28306;BME280;7516;43.570;1.448;2023-03-11T09:06:12;99371.13;;;15.65;97.96
28306;BME280;7516;43.570;1.448;2023-03-11T09:08:40;99370.78;;;15.55;98.81
28306;BME280;7516;43.570;1.448;2023-03-11T09:11:08;99390.53;;;15.39;100.00
28306;BME280;7516;43.570;1.448;2023-03-11T09:13:38;99377.25;;;15.15;100.00
28306;BME280;7516;43.570;1.448;2023-03-11T09:16:08;99382.84;;;14.87;100.00
28306;BME280;7516;43.570;1.448;2023-03-11T09:18:36;99373.97;;;14.68;100.00
28306;BME280;7516;43.570;1.448;2023-03-11T09:21:05;99372.34;;;14.60;100.00
28306;BME280;7516;43.570;1.448;2023-03-11T09:23:33;99397.72;;;14.61;100.00
28306;BME280;7516;43.570;1.448;2023-03-11T09:26:00;99393.47;;;14.67;100.00
28306;BME280;7516;43.570;1.448;2023-03-11T09:28:28;99389.19;;;14.66;100.00
28306;BME280;7516;43.570;1.448;2023-03-11T09:30:56;99391.63;;;14.67;100.00
28306;BME280;7516;43.570;1.448;2023-03-11T09:33:24;99383.66;;;14.81;100.00
28306;BME280;7516;43.570;1.448;2023-03-11T09:35:52;99389.16;;;14.86;100.00
28306;BME280;7516;43.570;1.448;2023-03-11T09:38:21;99399.28;;;14.89;100.00
28306;BME280;7516;43.570;1.448;2023-03-11T09:40:57;99409.00;;;14.88;100.00
28306;BME280;7516;43.570;1.448;2023-03-11T09:43:43;99405.84;;;14.66;100.00
28306;BME280;7516;43.570;1.448;2023-03-11T09:46:32;99389.22;;;14.59;100.00
28306;BME280;7516;43.570;1.448;2023-03-11T09:49:11;99387.16;;;14.61;100.00
28306;BME280;7516;43.570;1.448;2023-03-11T09:51:48;99384.31;;;14.63;100.00
28306;BME280;7516;43.570;1.448;2023-03-11T09:54:20;99388.81;;;14.56;100.00
28306;BME280;7516;43.570;1.448;2023-03-11T09:56:48;99398.56;;;14.49;100.00
28306;BME280;7516;43.570;1.448;2023-03-11T09:59:20;99395.88;;;14.36;100.00
28306;BME280;7516;43.570;1.448;2023-03-11T10:01:52;99399.16;;;14.31;100.00
28306;BME280;7516;43.570;1.448;2023-03-11T10:04:22;99384.97;;;14.32;100.00
28306;BME280;7516;43.570;1.448;2023-03-11T10:06:52;99388.81;;;14.29;100.00
28306;BME280;7516;43.570;1.448;2023-03-11T10:09:34;99389.41;;;14.31;100.00
28306;BME280;7516;43.570;1.448;2023-03-11T10:12:12;99384.34;;;14.37;100.00
28306;BME280;7516;43.570;1.448;2023-03-11T10:15:04;99399.78;;;14.40;100.00
28306;BME280;7516;43.570;1.448;2023-03-11T10:17:51;99398.31;;;14.37;100.00
28306;BME280;7516;43.570;1.448;2023-03-11T10:20:27;99383.94;;;14.26;100.00
28306;BME280;7516;43.570;1.448;2023-03-11T10:23:03;99377.06;;;14.12;100.00
28306;BME280;7516;43.570;1.448;2023-03-11T10:25:41;99378.28;;;14.03;100.00
28306;BME280;7516;43.570;1.448;2023-03-11T10:28:16;99381.50;;;13.99;100.00
28306;BME280;7516;43.570;1.448;2023-03-11T10:30:46;99376.66;;;14.02;100.00
28306;BME280;7516;43.570;1.448;2023-03-11T10:33:20;99397.09;;;13.93;100.00
28306;BME280;7516;43.570;1.448;2023-03-11T10:35:52;99384.94;;;13.92;100.00
28306;BME280;7516;43.570;1.448;2023-03-11T10:38:22;99389.00;;;13.88;100.00
28306;BME280;7516;43.570;1.448;2023-03-11T10:40:55;99385.56;;;13.88;100.00
28306;BME280;7516;43.570;1.448;2023-03-11T10:43:27;99394.88;;;13.84;100.00
28306;BME280;7516;43.570;1.448;2023-03-11T10:45:55;99400.75;;;13.79;100.00
28306;BME280;7516;43.570;1.448;2023-03-11T10:48:27;99395.69;;;13.78;100.00
28306;BME280;7516;43.570;1.448;2023-03-11T10:51:01;99379.06;;;13.77;100.00
28306;BME280;7516;43.570;1.448;2023-03-11T10:53:29;99394.47;;;13.80;100.00
28306;BME280;7516;43.570;1.448;2023-03-11T10:55:59;99393.03;;;13.78;100.00
28306;BME280;7516;43.570;1.448;2023-03-11T10:58:28;99407.03;;;13.78;100.00
28306;BME280;7516;43.570;1.448;2023-03-11T11:01:03;99400.31;;;13.76;100.00
28306;BME280;7516;43.570;1.448;2023-03-11T11:03:32;99396.06;;;13.75;100.00
28306;BME280;7516;43.570;1.448;2023-03-11T11:06:03;99397.06;;;13.74;100.00
28306;BME280;7516;43.570;1.448;2023-03-11T11:08:32;99394.88;;;13.77;100.00
28306;BME280;7516;43.570;1.448;2023-03-11T11:11:02;99422.00;;;13.78;100.00
28306;BME280;7516;43.570;1.448;2023-03-11T11:13:32;99390.00;;;13.74;100.00
28306;BME280;7516;43.570;1.448;2023-03-11T11:16:02;99397.69;;;13.76;100.00
28306;BME280;7516;43.570;1.448;2023-03-11T11:18:32;99404.16;;;13.73;100.00
28306;BME280;7516;43.570;1.448;2023-03-11T11:21:03;99398.09;;;13.73;100.00
28306;BME280;7516;43.570;1.448;2023-03-11T11:23:40;99419.16;;;13.73;100.00
28306;BME280;7516;43.570;1.448;2023-03-11T11:26:16;99416.31;;;13.74;100.00
28306;BME280;7516;43.570;1.448;2023-03-11T11:28:43;99423.59;;;13.72;100.00
28306;BME280;7516;43.570;1.448;2023-03-11T11:31:23;99414.09;;;13.71;100.00
28306;BME280;7516;43.570;1.448;2023-03-11T11:33:52;99407.03;;;13.78;100.00
28306;BME280;7516;43.570;1.448;2023-03-11T11:36:22;99409.47;;;13.80;100.00
28306;BME280;7516;43.570;1.448;2023-03-11T11:38:52;99415.53;;;13.87;100.00
28306;BME280;7516;43.570;1.448;2023-03-11T11:41:22;99415.94;;;13.84;100.00
28306;BME280;7516;43.570;1.448;2023-03-11T11:43:52;99419.56;;;13.83;100.00
28306;BME280;7516;43.570;1.448;2023-03-11T11:46:23;99429.09;;;13.84;100.00
28306;BME280;7516;43.570;1.448;2023-03-11T11:49:05;99421.81;;;13.79;100.00
28306;BME280;7516;43.570;1.448;2023-03-11T11:51:39;99446.34;;;13.80;100.00
28306;BME280;7516;43.570;1.448;2023-03-11T11:54:15;99422.00;;;13.78;100.00
28306;BME280;7516;43.570;1.448;2023-03-11T11:56:45;99442.28;;;13.77;100.00
28306;BME280;7516;43.570;1.448;2023-03-11T11:59:16;99428.09;;;13.72;100.00
28306;BME280;7516;43.570;1.448;2023-03-11T12:01:54;99435.56;;;13.68;100.00
28306;BME280;7516;43.570;1.448;2023-03-11T12:04:32;99442.66;;;13.68;100.00
28306;BME280;7516;43.570;1.448;2023-03-11T12:07:19;99452.75;;;13.64;100.00
28306;BME280;7516;43.570;1.448;2023-03-11T12:09:56;99453.16;;;13.61;100.00
28306;BME280;7516;43.570;1.448;2023-03-11T12:12:33;99448.09;;;13.60;100.00
28306;BME280;7516;43.570;1.448;2023-03-11T12:15:11;99433.31;;;13.59;100.00
28306;BME280;7516;43.570;1.448;2023-03-11T12:17:43;99435.94;;;13.59;100.00
28306;BME280;7516;43.570;1.448;2023-03-11T12:20:17;99442.41;;;13.56;100.00
28306;BME280;7516;43.570;1.448;2023-03-11T12:23:17;99441.59;;;13.55;100.00
28306;BME280;7516;43.570;1.448;2023-03-11T12:25:58;99447.47;;;13.51;100.00
28306;BME280;7516;43.570;1.448;2023-03-11T12:28:38;99444.63;;;13.52;100.00
28306;BME280;7516;43.570;1.448;2023-03-11T12:31:09;99443.00;;;13.51;100.00
28306;BME280;7516;43.570;1.448;2023-03-11T12:33:39;99438.38;;;13.53;100.00
28306;BME280;7516;43.570;1.448;2023-03-11T12:36:18;99433.09;;;13.53;100.00
28306;BME280;7516;43.570;1.448;2023-03-11T12:38:49;99458.38;;;13.54;100.00
28306;BME280;7516;43.570;1.448;2023-03-11T12:41:31;99432.31;;;13.60;100.00
28306;BME280;7516;43.570;1.448;2023-03-11T12:44:20;99428.47;;;13.62;100.00
28306;BME280;7516;43.570;1.448;2023-03-11T12:52:58;99427.06;;;13.73;100.00
28306;BME280;7516;43.570;1.448;2023-03-11T12:55:33;99416.31;;;13.74;100.00
28306;BME280;7516;43.570;1.448;2023-03-11T12:58:31;99435.75;;;13.73;100.00
28306;BME280;7516;43.570;1.448;2023-03-11T13:01:15;99408.22;;;13.76;100.00
28306;BME280;7516;43.570;1.448;2023-03-11T13:04:03;99416.31;;;13.74;100.00
28306;BME280;7516;43.570;1.448;2023-03-11T13:10:02;99396.50;;;13.72;100.00
28306;BME280;7516;43.570;1.448;2023-03-11T13:12:40;99410.25;;;13.74;100.00
28306;BME280;7516;43.570;1.448;2023-03-11T13:15:36;99403.56;;;13.78;100.00
28306;BME280;7516;43.570;1.448;2023-03-11T13:18:15;99392.44;;;13.82;100.00
28306;BME280;7516;43.570;1.448;2023-03-11T13:20:48;99400.56;;;13.87;100.00
28306;BME280;7516;43.570;1.448;2023-03-11T13:23:30;99411.91;;;13.88;100.00
28306;BME280;7516;43.570;1.448;2023-03-11T13:26:27;99397.50;;;13.90;100.00
28306;BME280;7516;43.570;1.448;2023-03-11T13:29:21;99394.66;;;13.92;100.00
28306;BME280;7516;43.570;1.448;2023-03-11T13:32:02;99398.94;;;13.93;100.00
28306;BME280;7516;43.570;1.448;2023-03-11T13:34:43;99387.59;;;13.92;100.00